createdAt,value
2023-06-19T00:01:01.291Z,314
2023-06-19T00:01:13.008Z,314
2023-06-19T00:01:43.080Z,314
2023-06-19T00:02:14.530Z,314
2023-06-19T00:02:44.434Z,313
2023-06-19T00:03:14.995Z,313
2023-06-19T00:03:45.876Z,313
2023-06-19T00:04:29.598Z,313
2023-06-19T00:04:48.374Z,313
2023-06-19T00:05:20.105Z,312
2023-06-19T00:06:07.707Z,313
2023-06-19T00:06:22.366Z,313
2023-06-19T00:06:53.422Z,313
2023-06-19T00:07:23.881Z,313
2023-06-19T00:07:54.625Z,313
2023-06-19T00:08:26.045Z,313
2023-06-19T00:12:31.168Z,313
2023-06-19T00:17:39.744Z,313
2023-06-19T00:17:58.991Z,313
2023-06-19T00:18:28.112Z,313
2023-06-19T00:18:48.583Z,312
2023-06-19T00:19:49.327Z,313
2023-06-19T00:20:19.803Z,312
2023-06-19T00:20:49.852Z,312
2023-06-19T00:21:20.635Z,312
2023-06-19T00:21:51.570Z,312
2023-06-19T00:22:22.796Z,312
2023-06-19T00:22:56.189Z,313
2023-06-19T00:23:25.651Z,313
2023-06-19T00:23:59.335Z,313
2023-06-19T00:24:27.335Z,313
2023-06-19T00:24:58.071Z,313
2023-06-19T00:25:28.884Z,313
2023-06-19T00:25:59.658Z,313
2023-06-19T00:26:30.607Z,313
2023-06-19T00:27:01.729Z,313
2023-06-19T00:27:32.705Z,313
2023-06-19T00:28:04.049Z,313
2023-06-19T00:28:35.529Z,312
2023-06-19T00:29:06.719Z,312
2023-06-19T00:29:37.636Z,312
2023-06-19T00:30:11.007Z,312
2023-06-19T00:30:40.410Z,312
2023-06-19T00:31:11.383Z,312
2023-06-19T00:31:41.339Z,312
2023-06-19T00:32:12.268Z,312
2023-06-19T00:33:00.474Z,302
2023-06-19T00:33:14.106Z,302
2023-06-19T00:33:45.344Z,311
2023-06-19T00:34:17.426Z,311
2023-06-19T00:34:47.697Z,312
2023-06-19T00:35:18.905Z,313
2023-06-19T00:35:51.961Z,312
2023-06-19T00:37:06.277Z,312
2023-06-19T00:37:22.217Z,311
2023-06-19T00:37:52.201Z,312
2023-06-19T00:38:23.494Z,323
2023-06-19T00:38:55.503Z,318
2023-06-19T00:39:26.908Z,319
2023-06-19T00:39:58.561Z,318
2023-06-19T00:40:29.436Z,318
2023-06-19T00:41:00.046Z,318
2023-06-19T00:41:31.501Z,318
2023-06-19T00:42:01.485Z,319
2023-06-19T00:42:31.852Z,311
2023-06-19T00:43:02.444Z,313
2023-06-19T00:43:34.315Z,313
2023-06-19T00:44:05.847Z,313
2023-06-19T00:44:37.410Z,313
2023-06-19T00:45:09.950Z,313
2023-06-19T00:45:39.273Z,311
2023-06-19T00:46:09.687Z,312
2023-06-19T00:46:39.962Z,312
2023-06-19T00:47:41.895Z,312
2023-06-19T00:48:12.500Z,312
2023-06-19T00:48:43.074Z,312
2023-06-19T00:49:15.329Z,312
2023-06-19T00:49:47.176Z,312
2023-06-19T00:50:17.766Z,318
2023-06-19T00:50:48.238Z,318
2023-06-19T00:51:19.658Z,318
2023-06-19T00:51:51.871Z,318
2023-06-19T00:52:27.317Z,318
2023-06-19T00:52:51.464Z,318
2023-06-19T00:53:22.168Z,318
2023-06-19T00:53:55.632Z,318
2023-06-19T00:54:25.151Z,318
2023-06-19T00:54:56.926Z,318
2023-06-19T00:55:28.296Z,309
2023-06-19T00:55:58.988Z,315
2023-06-19T00:56:28.684Z,313
2023-06-19T00:57:08.257Z,313
2023-06-19T00:57:30.404Z,314
2023-06-19T00:58:02.154Z,316
2023-06-19T00:58:32.031Z,316
2023-06-19T00:59:03.450Z,316
2023-06-19T00:59:35.366Z,316
2023-06-19T01:00:07.287Z,317
2023-06-19T01:00:38.049Z,317
2023-06-19T01:01:22.535Z,316
2023-06-19T01:01:39.803Z,313
2023-06-19T01:02:11.078Z,314
2023-06-19T01:02:41.028Z,314
2023-06-19T01:03:12.261Z,314
2023-06-19T01:03:42.368Z,314
2023-06-19T01:04:13.507Z,314
2023-06-19T01:04:44.597Z,314
2023-06-19T01:05:17.295Z,314
2023-06-19T01:05:47.676Z,313
2023-06-19T01:06:18.960Z,313
2023-06-19T01:06:50.167Z,313
2023-06-19T01:07:19.715Z,313
2023-06-19T01:07:50.413Z,313
2023-06-19T01:08:21.571Z,313
2023-06-19T01:08:52.429Z,314
2023-06-19T01:09:24.314Z,329
2023-06-19T01:09:55.973Z,318
2023-06-19T01:10:27.643Z,317
2023-06-19T01:10:58.335Z,316
2023-06-19T01:11:28.683Z,318
2023-06-19T01:11:59.881Z,318
2023-06-19T01:12:30.806Z,345
2023-06-19T01:13:00.965Z,320
2023-06-19T01:14:02.499Z,320
2023-06-19T01:14:33.634Z,320
2023-06-19T01:15:07.888Z,323
2023-06-19T01:15:37.440Z,323
2023-06-19T01:16:09.544Z,322
2023-06-19T01:16:38.449Z,322
2023-06-19T01:17:10.338Z,321
2023-06-19T01:17:40.276Z,324
2023-06-19T01:18:10.524Z,324
2023-06-19T01:19:12.776Z,316
2023-06-19T01:19:43.478Z,318
2023-06-19T01:20:16.378Z,325
2023-06-19T01:20:47.275Z,324
2023-06-19T01:21:18.199Z,315
2023-06-19T01:21:48.669Z,316
2023-06-19T01:22:37.603Z,313
2023-06-19T01:22:49.549Z,313
2023-06-19T01:23:20.249Z,313
2023-06-19T01:23:51.290Z,318
2023-06-19T01:24:22.660Z,318
2023-06-19T01:24:53.623Z,318
2023-06-19T01:25:24.822Z,318
2023-06-19T01:25:57.243Z,318
2023-06-19T01:26:36.057Z,318
2023-06-19T01:26:58.475Z,318
2023-06-19T01:27:59.382Z,318
2023-06-19T01:28:30.132Z,318
2023-06-19T01:29:01.951Z,318
2023-06-19T01:29:32.529Z,318
2023-06-19T01:30:03.679Z,318
2023-06-19T01:30:39.055Z,319
2023-06-19T01:31:07.580Z,313
2023-06-19T01:31:38.069Z,318
2023-06-19T01:32:09.307Z,318
2023-06-19T01:32:40.258Z,318
2023-06-19T01:33:10.353Z,315
2023-06-19T01:33:40.222Z,313
2023-06-19T01:34:11.451Z,313
2023-06-19T01:34:42.310Z,313
2023-06-19T01:35:13.813Z,313
2023-06-19T01:35:44.098Z,313
2023-06-19T01:36:17.738Z,313
2023-06-19T01:36:48.709Z,316
2023-06-19T01:37:19.486Z,316
2023-06-19T01:37:50.706Z,316
2023-06-19T01:38:20.262Z,316
2023-06-19T01:38:50.204Z,316
2023-06-19T01:39:21.332Z,316
2023-06-19T01:40:24.021Z,316
2023-06-19T01:40:54.165Z,316
2023-06-19T01:41:26.711Z,311
2023-06-19T01:41:57.396Z,312
2023-06-19T01:42:28.070Z,313
2023-06-19T01:42:58.397Z,317
2023-06-19T01:44:00.483Z,317
2023-06-19T01:44:31.159Z,312
2023-06-19T01:45:02.898Z,315
2023-06-19T01:45:33.239Z,314
2023-06-19T01:46:04.785Z,315
2023-06-19T01:46:53.851Z,312
2023-06-19T01:47:07.657Z,316
2023-06-19T01:47:38.586Z,317
2023-06-19T01:48:09.511Z,317
2023-06-19T01:48:40.077Z,317
2023-06-19T01:49:12.153Z,317
2023-06-19T01:49:42.014Z,317
2023-06-19T01:50:12.959Z,317
2023-06-19T01:50:43.496Z,317
2023-06-19T01:51:14.939Z,317
2023-06-19T01:51:47.086Z,317
2023-06-19T01:52:17.456Z,317
2023-06-19T01:52:48.360Z,317
2023-06-19T01:53:30.039Z,317
2023-06-19T01:53:49.713Z,316
2023-06-19T01:54:20.848Z,316
2023-06-19T01:54:51.533Z,316
2023-06-19T01:55:23.150Z,316
2023-06-19T01:55:53.474Z,317
2023-06-19T01:56:24.578Z,317
2023-06-19T01:56:56.673Z,317
2023-06-19T01:57:28.121Z,326
2023-06-19T01:58:34.469Z,326
2023-06-19T01:58:59.828Z,322
2023-06-19T01:59:30.785Z,322
2023-06-19T02:00:34.331Z,322
2023-06-19T02:01:03.847Z,323
2023-06-19T02:01:34.540Z,323
2023-06-19T02:02:23.641Z,323
2023-06-19T02:02:38.305Z,323
2023-06-19T02:03:09.330Z,323
2023-06-19T02:03:40.109Z,323
2023-06-19T02:04:11.194Z,323
2023-06-19T02:04:40.859Z,323
2023-06-19T02:05:13.125Z,322
2023-06-19T02:05:42.555Z,322
2023-06-19T02:06:44.939Z,322
2023-06-19T02:07:17.247Z,322
2023-06-19T02:07:47.748Z,322
2023-06-19T02:08:18.740Z,322
2023-06-19T02:08:50.072Z,322
2023-06-19T02:09:20.534Z,322
2023-06-19T02:09:51.532Z,322
2023-06-19T02:10:22.254Z,322
2023-06-19T02:10:52.820Z,322
2023-06-19T02:11:24.132Z,322
2023-06-19T02:11:54.740Z,322
2023-06-19T02:12:25.905Z,322
2023-06-19T02:12:57.390Z,322
2023-06-19T02:13:29.010Z,323
2023-06-19T02:14:00.050Z,323
2023-06-19T02:14:30.662Z,323
2023-06-19T02:15:00.811Z,323
2023-06-19T02:15:32.496Z,323
2023-06-19T02:16:02.582Z,323
2023-06-19T02:16:33.892Z,323
2023-06-19T02:17:04.919Z,323
2023-06-19T02:17:36.999Z,323
2023-06-19T02:18:08.896Z,323
2023-06-19T02:18:39.313Z,323
2023-06-19T02:19:11.652Z,323
2023-06-19T02:19:40.740Z,323
2023-06-19T02:20:12.321Z,323
2023-06-19T02:20:41.662Z,323
2023-06-19T02:21:14.559Z,323
2023-06-19T02:21:43.382Z,323
2023-06-19T02:22:14.836Z,323
2023-06-19T02:22:45.690Z,323
2023-06-19T02:23:18.219Z,322
2023-06-19T02:23:49.081Z,322
2023-06-19T02:24:20.629Z,323
2023-06-19T02:24:50.412Z,322
2023-06-19T02:25:21.846Z,322
2023-06-19T02:25:51.405Z,323
2023-06-19T02:26:23.152Z,322
2023-06-19T02:27:11.696Z,323
2023-06-19T02:27:24.506Z,322
2023-06-19T02:27:55.960Z,322
2023-06-19T02:28:27.220Z,323
2023-06-19T02:28:58.853Z,322
2023-06-19T02:29:29.729Z,323
2023-06-19T02:29:59.681Z,323
2023-06-19T02:30:32.281Z,322
2023-06-19T02:31:01.464Z,323
2023-06-19T02:31:32.433Z,322
2023-06-19T02:32:04.638Z,323
2023-06-19T02:32:35.117Z,323
2023-06-19T02:33:06.626Z,322
2023-06-19T02:33:36.817Z,322
2023-06-19T02:34:09.879Z,322
2023-06-19T02:34:39.836Z,322
2023-06-19T02:35:11.542Z,322
2023-06-19T02:35:40.668Z,322
2023-06-19T02:36:12.214Z,322
2023-06-19T02:36:42.613Z,322
2023-06-19T02:37:13.760Z,322
2023-06-19T02:37:44.777Z,322
2023-06-19T02:38:16.393Z,322
2023-06-19T02:38:47.774Z,322
2023-06-19T02:39:19.354Z,322
2023-06-19T02:39:49.634Z,322
2023-06-19T02:40:22.238Z,322
2023-06-19T02:40:52.550Z,322
2023-06-19T02:41:21.678Z,322
2023-06-19T02:41:52.877Z,322
2023-06-19T02:42:23.821Z,322
2023-06-19T02:42:55.057Z,322
2023-06-19T02:43:26.361Z,322
2023-06-19T02:43:57.080Z,322
2023-06-19T02:44:28.892Z,322
2023-06-19T02:45:00.217Z,322
2023-06-19T02:45:30.901Z,322
2023-06-19T02:46:00.899Z,322
2023-06-19T02:46:31.644Z,322
2023-06-19T02:47:21.132Z,322
2023-06-19T02:47:33.899Z,322
2023-06-19T02:48:05.175Z,322
2023-06-19T02:48:36.315Z,322
2023-06-19T02:49:07.478Z,322
2023-06-19T02:49:39.608Z,322
2023-06-19T02:50:11.166Z,322
2023-06-19T02:50:40.278Z,322
2023-06-19T02:51:11.747Z,322
2023-06-19T02:51:42.484Z,322
2023-06-19T02:52:13.262Z,322
2023-06-19T02:52:43.574Z,322
2023-06-19T02:53:15.709Z,322
2023-06-19T02:53:46.083Z,322
2023-06-19T02:54:17.732Z,322
2023-06-19T02:54:48.923Z,322
2023-06-19T02:55:20.676Z,322
2023-06-19T02:55:50.452Z,322
2023-06-19T02:56:21.714Z,322
2023-06-19T02:56:51.855Z,322
2023-06-19T02:57:23.992Z,322
2023-06-19T02:57:54.204Z,322
2023-06-19T02:58:25.219Z,322
2023-06-19T02:58:57.453Z,322
2023-06-19T02:59:27.123Z,322
2023-06-19T02:59:59.993Z,322
2023-06-19T03:00:30.246Z,322
2023-06-19T03:01:00.109Z,322
2023-06-19T03:01:31.290Z,322
2023-06-19T03:02:02.626Z,322
2023-06-19T03:02:33.215Z,322
2023-06-19T03:03:05.527Z,322
2023-06-19T03:03:35.781Z,322
2023-06-19T03:04:07.133Z,322
2023-06-19T03:04:36.995Z,322
2023-06-19T03:05:10.310Z,322
2023-06-19T03:05:40.557Z,322
2023-06-19T03:06:41.871Z,322
2023-06-19T03:07:13.083Z,322
2023-06-19T03:07:42.840Z,322
2023-06-19T03:08:14.428Z,322
2023-06-19T03:08:45.350Z,322
2023-06-19T03:09:16.509Z,322
2023-06-19T03:09:47.871Z,322
2023-06-19T03:10:19.338Z,323
2023-06-19T03:10:50.020Z,322
2023-06-19T03:11:21.406Z,323
2023-06-19T03:11:51.485Z,322
2023-06-19T03:12:22.479Z,322
2023-06-19T03:12:53.293Z,322
2023-06-19T03:13:24.037Z,323
2023-06-19T03:13:55.042Z,323
2023-06-19T03:14:26.448Z,322
2023-06-19T03:14:56.988Z,323
2023-06-19T03:15:30.510Z,322
2023-06-19T03:16:01.278Z,322
2023-06-19T03:16:31.227Z,322
2023-06-19T03:17:01.822Z,323
2023-06-19T03:17:32.354Z,322
2023-06-19T03:18:03.320Z,323
2023-06-19T03:18:33.848Z,323
2023-06-19T03:19:05.232Z,322
2023-06-19T03:19:36.317Z,322
2023-06-19T03:20:08.654Z,323
2023-06-19T03:20:39.778Z,323
2023-06-19T03:21:11.612Z,323
2023-06-19T03:21:41.363Z,323
2023-06-19T03:22:12.559Z,323
2023-06-19T03:22:42.425Z,323
2023-06-19T03:23:12.829Z,323
2023-06-19T03:23:43.907Z,323
2023-06-19T03:24:15.427Z,323
2023-06-19T03:24:46.749Z,322
2023-06-19T03:25:17.064Z,322
2023-06-19T03:25:49.199Z,322
2023-06-19T03:26:20.300Z,322
2023-06-19T03:26:51.405Z,322
2023-06-19T03:27:22.220Z,322
2023-06-19T03:27:52.466Z,323
2023-06-19T03:28:24.019Z,323
2023-06-19T03:28:55.056Z,323
2023-06-19T03:29:25.522Z,323
2023-06-19T03:29:56.610Z,323
2023-06-19T03:30:28.613Z,323
2023-06-19T03:30:59.148Z,323
2023-06-19T03:31:30.739Z,323
2023-06-19T03:32:01.677Z,323
2023-06-19T03:32:32.704Z,323
2023-06-19T03:33:02.971Z,323
2023-06-19T03:33:33.148Z,323
2023-06-19T03:34:04.107Z,323
2023-06-19T03:34:35.273Z,323
2023-06-19T03:35:06.552Z,323
2023-06-19T03:35:37.075Z,323
2023-06-19T03:36:10.548Z,323
2023-06-19T03:36:40.811Z,323
2023-06-19T03:37:11.673Z,323
2023-06-19T03:37:42.399Z,323
2023-06-19T03:38:12.259Z,323
2023-06-19T03:38:43.668Z,323
2023-06-19T03:39:14.324Z,323
2023-06-19T03:39:44.828Z,323
2023-06-19T03:40:16.970Z,323
2023-06-19T03:41:04.298Z,323
2023-06-19T03:41:19.592Z,323
2023-06-19T03:41:50.282Z,323
2023-06-19T03:42:21.453Z,323
2023-06-19T03:42:51.560Z,323
2023-06-19T03:43:22.875Z,323
2023-06-19T03:43:53.962Z,323
2023-06-19T03:44:24.409Z,323
2023-06-19T03:44:55.177Z,323
2023-06-19T03:45:27.064Z,323
2023-06-19T03:45:56.984Z,323
2023-06-19T03:46:45.410Z,323
2023-06-19T03:47:00.612Z,323
2023-06-19T03:47:30.976Z,323
2023-06-19T03:48:02.445Z,324
2023-06-19T03:48:32.298Z,323
2023-06-19T03:49:04.642Z,323
2023-06-19T03:49:34.030Z,323
2023-06-19T03:50:27.221Z,323
2023-06-19T03:50:37.042Z,324
2023-06-19T03:51:09.261Z,323
2023-06-19T03:51:38.806Z,323
2023-06-19T03:52:10.761Z,323
2023-06-19T03:52:42.021Z,323
2023-06-19T03:53:43.485Z,323
2023-06-19T03:54:13.691Z,323
2023-06-19T03:55:02.800Z,323
2023-06-19T03:55:15.824Z,323
2023-06-19T03:55:46.464Z,323
2023-06-19T03:56:17.027Z,323
2023-06-19T03:57:06.019Z,323
2023-06-19T03:57:20.606Z,323
2023-06-19T03:58:07.551Z,323
2023-06-19T03:58:21.972Z,323
2023-06-19T03:59:11.622Z,323
2023-06-19T03:59:23.722Z,323
2023-06-19T03:59:54.661Z,323
2023-06-19T04:00:26.979Z,323
2023-06-19T04:00:58.022Z,323
2023-06-19T04:01:27.736Z,323
2023-06-19T04:02:00.004Z,323
2023-06-19T04:02:30.594Z,323
2023-06-19T04:03:00.869Z,323
2023-06-19T04:03:31.818Z,323
2023-06-19T04:04:02.300Z,323
2023-06-19T04:04:32.800Z,323
2023-06-19T04:05:04.519Z,323
2023-06-19T04:06:07.325Z,323
2023-06-19T04:06:37.740Z,323
2023-06-19T04:07:10.406Z,323
2023-06-19T04:07:40.741Z,323
2023-06-19T04:08:11.740Z,323
2023-06-19T04:08:42.452Z,323
2023-06-19T04:09:12.350Z,323
2023-06-19T04:09:43.099Z,323
2023-06-19T04:10:15.539Z,323
2023-06-19T04:10:45.449Z,323
2023-06-19T04:11:17.372Z,323
2023-06-19T04:11:47.526Z,323
2023-06-19T04:12:19.819Z,323
2023-06-19T04:12:50.542Z,323
2023-06-19T04:13:21.999Z,323
2023-06-19T04:13:51.175Z,323
2023-06-19T04:14:22.645Z,323
2023-06-19T04:14:53.241Z,323
2023-06-19T04:15:25.040Z,323
2023-06-19T04:15:55.686Z,323
2023-06-19T04:16:27.279Z,323
2023-06-19T04:16:58.731Z,323
2023-06-19T04:17:29.774Z,323
2023-06-19T04:18:00.963Z,316
2023-06-19T04:18:30.672Z,320
2023-06-19T04:19:01.360Z,319
2023-06-19T04:19:31.935Z,320
2023-06-19T04:20:03.867Z,319
2023-06-19T04:20:34.142Z,319
2023-06-19T04:21:06.292Z,319
2023-06-19T04:21:37.653Z,319
2023-06-19T04:22:08.999Z,319
2023-06-19T04:22:39.283Z,319
2023-06-19T04:23:11.377Z,319
2023-06-19T04:23:41.262Z,319
2023-06-19T04:24:12.350Z,319
2023-06-19T04:24:42.635Z,319
2023-06-19T04:25:13.152Z,319
2023-06-19T04:25:44.323Z,319
2023-06-19T04:26:15.997Z,319
2023-06-19T04:26:48.071Z,319
2023-06-19T04:27:22.780Z,319
2023-06-19T04:27:49.409Z,319
2023-06-19T04:28:20.437Z,319
2023-06-19T04:28:51.853Z,319
2023-06-19T04:29:22.474Z,320
2023-06-19T04:29:53.301Z,320
2023-06-19T04:30:55.675Z,320
2023-06-19T04:31:25.014Z,320
2023-06-19T04:31:57.142Z,320
2023-06-19T04:32:29.835Z,320
2023-06-19T04:32:59.732Z,320
2023-06-19T04:33:31.132Z,319
2023-06-19T04:34:01.053Z,322
2023-06-19T04:34:31.366Z,321
2023-06-19T04:35:03.534Z,321
2023-06-19T04:35:33.571Z,321
2023-06-19T04:36:05.124Z,321
2023-06-19T04:36:35.419Z,321
2023-06-19T04:37:07.593Z,321
2023-06-19T04:37:39.243Z,321
2023-06-19T04:38:10.271Z,321
2023-06-19T04:38:39.884Z,321
2023-06-19T04:39:11.094Z,321
2023-06-19T04:39:41.383Z,321
2023-06-19T04:40:13.432Z,321
2023-06-19T04:40:43.374Z,321
2023-06-19T04:41:14.247Z,321
2023-06-19T04:41:45.434Z,321
2023-06-19T04:42:18.195Z,321
2023-06-19T04:42:48.792Z,321
2023-06-19T04:43:20.080Z,321
2023-06-19T04:43:50.898Z,321
2023-06-19T04:44:21.266Z,321
2023-06-19T04:44:51.857Z,321
2023-06-19T04:45:23.367Z,321
2023-06-19T04:45:53.187Z,321
2023-06-19T04:46:24.596Z,321
2023-06-19T04:46:55.027Z,321
2023-06-19T04:47:36.428Z,321
2023-06-19T04:47:58.475Z,321
2023-06-19T04:48:30.008Z,321
2023-06-19T04:49:00.803Z,321
2023-06-19T04:49:30.794Z,321
2023-06-19T04:50:01.621Z,321
2023-06-19T04:50:32.687Z,321
2023-06-19T04:51:03.527Z,321
2023-06-19T04:51:34.881Z,321
2023-06-19T04:52:05.573Z,321
2023-06-19T04:52:37.104Z,321
2023-06-19T04:53:09.296Z,321
2023-06-19T04:53:39.455Z,321
2023-06-19T04:54:10.990Z,320
2023-06-19T04:54:59.436Z,320
2023-06-19T04:55:12.604Z,320
2023-06-19T04:56:02.869Z,320
2023-06-19T04:56:13.315Z,320
2023-06-19T04:56:45.343Z,311
2023-06-19T04:57:15.113Z,312
2023-06-19T04:57:48.587Z,312
2023-06-19T04:58:19.298Z,311
2023-06-19T04:58:50.108Z,311
2023-06-19T04:59:20.604Z,311
2023-06-19T04:59:51.214Z,311
2023-06-19T05:00:25.023Z,311
2023-06-19T05:00:52.541Z,311
2023-06-19T05:01:54.385Z,312
2023-06-19T05:02:25.684Z,311
2023-06-19T05:02:57.942Z,311
2023-06-19T05:03:28.585Z,311
2023-06-19T05:03:59.381Z,311
2023-06-19T05:04:30.424Z,311
2023-06-19T05:05:00.898Z,311
2023-06-19T05:05:31.932Z,311
2023-06-19T05:06:02.450Z,311
2023-06-19T05:06:33.344Z,311
2023-06-19T05:07:04.140Z,311
2023-06-19T05:07:35.151Z,311
2023-06-19T05:08:39.477Z,311
2023-06-19T05:09:32.116Z,311
2023-06-19T05:09:40.950Z,311
2023-06-19T05:10:12.718Z,311
2023-06-19T05:10:41.420Z,311
2023-06-19T05:11:12.637Z,311
2023-06-19T05:11:44.003Z,311
2023-06-19T05:12:14.660Z,311
2023-06-19T05:12:45.197Z,311
2023-06-19T05:13:19.526Z,311
2023-06-19T05:13:49.683Z,311
2023-06-19T05:14:20.507Z,311
2023-06-19T05:14:54.164Z,311
2023-06-19T05:15:37.027Z,311
2023-06-19T05:15:51.775Z,311
2023-06-19T05:16:22.578Z,311
2023-06-19T05:16:53.980Z,311
2023-06-19T05:17:24.533Z,311
2023-06-19T05:17:55.495Z,311
2023-06-19T05:18:27.837Z,311
2023-06-19T05:18:59.288Z,311
2023-06-19T05:19:30.058Z,311
2023-06-19T05:20:01.222Z,311
2023-06-19T05:20:31.110Z,311
2023-06-19T05:21:01.691Z,311
2023-06-19T05:21:32.477Z,311
2023-06-19T05:22:03.401Z,311
2023-06-19T05:22:34.126Z,311
2023-06-19T05:23:06.128Z,311
2023-06-19T05:23:51.332Z,311
2023-06-19T05:24:08.694Z,311
2023-06-19T05:24:40.759Z,311
2023-06-19T05:25:12.447Z,311
2023-06-19T05:25:41.407Z,311
2023-06-19T05:26:11.896Z,311
2023-06-19T05:26:42.677Z,311
2023-06-19T05:27:14.629Z,311
2023-06-19T05:27:46.399Z,311
2023-06-19T05:28:25.027Z,311
2023-06-19T05:28:46.804Z,311
2023-06-19T05:29:18.994Z,311
2023-06-19T05:29:51.281Z,311
2023-06-19T05:30:39.500Z,311
2023-06-19T05:31:05.653Z,311
2023-06-19T05:31:21.718Z,311
2023-06-19T05:31:53.519Z,311
2023-06-19T05:32:23.517Z,311
2023-06-19T05:32:54.353Z,311
2023-06-19T05:33:25.806Z,311
2023-06-19T05:33:58.192Z,311
2023-06-19T05:34:29.761Z,311
2023-06-19T05:34:59.534Z,311
2023-06-19T05:35:30.322Z,311
2023-06-19T05:36:01.623Z,311
2023-06-19T05:36:32.154Z,311
2023-06-19T05:37:02.401Z,311
2023-06-19T05:37:33.354Z,311
2023-06-19T05:38:04.442Z,311
2023-06-19T05:38:35.637Z,311
2023-06-19T05:39:07.542Z,311
2023-06-19T05:39:38.852Z,311
2023-06-19T05:40:10.760Z,311
2023-06-19T05:40:40.700Z,311
2023-06-19T05:41:11.273Z,311
2023-06-19T05:41:41.666Z,311
2023-06-19T05:42:12.987Z,311
2023-06-19T05:42:43.700Z,311
2023-06-19T05:43:14.857Z,311
2023-06-19T05:43:49.711Z,311
2023-06-19T05:44:17.110Z,311
2023-06-19T05:44:54.159Z,311
2023-06-19T05:45:42.796Z,311
2023-06-19T05:47:49.591Z,311
2023-06-19T05:48:09.873Z,311
2023-06-19T05:48:24.491Z,311
2023-06-19T05:48:55.185Z,311
2023-06-19T05:49:26.582Z,311
2023-06-19T05:49:57.238Z,311
2023-06-19T05:50:32.827Z,311
2023-06-19T05:51:32.250Z,311
2023-06-19T05:52:02.437Z,311
2023-06-19T05:52:33.197Z,311
2023-06-19T05:53:04.045Z,311
2023-06-19T05:53:35.281Z,311
2023-06-19T05:54:05.760Z,311
2023-06-19T05:54:36.896Z,311
2023-06-19T05:55:09.755Z,311
2023-06-19T05:55:40.270Z,311
2023-06-19T05:56:11.393Z,311
2023-06-19T05:56:41.469Z,311
2023-06-19T05:57:12.642Z,311
2023-06-19T05:57:43.090Z,311
2023-06-19T05:58:14.349Z,311
2023-06-19T05:58:45.273Z,311
2023-06-19T05:59:15.562Z,311
2023-06-19T05:59:48.516Z,311
2023-06-19T06:00:18.518Z,311
2023-06-19T06:00:50.453Z,311
2023-06-19T06:01:24.432Z,311
2023-06-19T06:02:05.909Z,311
2023-06-19T06:02:23.739Z,311
2023-06-19T06:02:53.084Z,311
2023-06-19T06:03:23.699Z,311
2023-06-19T06:04:10.314Z,311
2023-06-19T06:04:25.628Z,311
2023-06-19T06:05:00.094Z,311
2023-06-19T06:05:28.148Z,311
2023-06-19T06:06:06.012Z,311
2023-06-19T06:06:56.302Z,311
2023-06-19T06:07:12.619Z,311
2023-06-19T06:07:34.644Z,311
2023-06-19T06:08:03.072Z,311
2023-06-19T06:08:34.606Z,311
2023-06-19T06:09:04.786Z,311
2023-06-19T06:09:35.982Z,311
2023-06-19T06:10:07.851Z,311
2023-06-19T06:10:38.564Z,311
2023-06-19T06:11:11.090Z,311
2023-06-19T06:11:42.003Z,311
2023-06-19T06:12:12.145Z,311
2023-06-19T06:12:42.180Z,311
2023-06-19T06:13:13.481Z,312
2023-06-19T06:13:44.575Z,312
2023-06-19T06:14:14.969Z,312
2023-06-19T06:14:45.696Z,312
2023-06-19T06:15:17.047Z,312
2023-06-19T06:15:48.149Z,312
2023-06-19T06:16:21.255Z,312
2023-06-19T06:16:51.490Z,312
2023-06-19T06:17:22.022Z,312
2023-06-19T06:17:52.413Z,313
2023-06-19T06:18:23.206Z,313
2023-06-19T06:18:53.912Z,313
2023-06-19T06:19:25.043Z,313
2023-06-19T06:19:55.575Z,313
2023-06-19T06:20:27.240Z,313
2023-06-19T06:20:57.897Z,313
2023-06-19T06:21:30.281Z,313
2023-06-19T06:22:01.569Z,313
2023-06-19T06:22:31.703Z,313
2023-06-19T06:23:02.731Z,313
2023-06-19T06:23:32.632Z,313
2023-06-19T06:24:04.125Z,313
2023-06-19T06:24:34.679Z,313
2023-06-19T06:25:06.369Z,313
2023-06-19T06:25:36.955Z,313
2023-06-19T06:26:08.565Z,313
2023-06-19T06:26:40.787Z,313
2023-06-19T06:27:11.745Z,313
2023-06-19T06:28:00.184Z,313
2023-06-19T06:28:13.325Z,313
2023-06-19T06:28:43.051Z,313
2023-06-19T06:29:14.700Z,313
2023-06-19T06:29:44.857Z,313
2023-06-19T06:30:20.303Z,313
2023-06-19T06:30:46.848Z,313
2023-06-19T06:31:33.491Z,313
2023-06-19T06:31:50.143Z,313
2023-06-19T06:32:22.072Z,313
2023-06-19T06:32:52.259Z,313
2023-06-19T06:33:23.860Z,313
2023-06-19T06:33:53.660Z,313
2023-06-19T06:34:24.077Z,313
2023-06-19T06:34:54.937Z,313
2023-06-19T06:35:26.237Z,313
2023-06-19T06:35:56.878Z,313
2023-06-19T06:36:36.048Z,313
2023-06-19T06:37:05.981Z,313
2023-06-19T06:37:31.290Z,313
2023-06-19T06:38:01.970Z,313
2023-06-19T06:38:32.429Z,313
2023-06-19T06:39:03.207Z,313
2023-06-19T06:39:33.481Z,313
2023-06-19T06:40:05.393Z,313
2023-06-19T06:40:35.542Z,313
2023-06-19T06:41:06.928Z,313
2023-06-19T06:41:38.582Z,313
2023-06-19T06:42:10.958Z,313
2023-06-19T06:42:41.910Z,313
2023-06-19T06:43:12.586Z,313
2023-06-19T06:43:43.203Z,313
2023-06-19T06:44:43.238Z,313
2023-06-19T06:45:16.000Z,313
2023-06-19T06:45:46.756Z,313
2023-06-19T06:46:16.914Z,313
2023-06-19T06:46:52.449Z,313
2023-06-19T06:47:23.262Z,313
2023-06-19T06:47:51.332Z,313
2023-06-19T06:48:22.617Z,313
2023-06-19T06:48:52.854Z,313
2023-06-19T06:49:24.611Z,313
2023-06-19T06:49:54.906Z,313
2023-06-19T06:50:25.908Z,313
2023-06-19T06:50:55.641Z,313
2023-06-19T06:51:26.610Z,313
2023-06-19T06:51:58.624Z,313
2023-06-19T06:52:30.181Z,313
2023-06-19T06:53:01.614Z,313
2023-06-19T06:53:32.151Z,313
2023-06-19T06:54:02.911Z,313
2023-06-19T06:54:33.101Z,313
2023-06-19T06:55:04.931Z,313
2023-06-19T06:55:34.805Z,313
2023-06-19T06:56:06.216Z,313
2023-06-19T06:56:37.646Z,313
2023-06-19T06:57:08.212Z,313
2023-06-19T06:57:40.007Z,320
2023-06-19T06:58:12.370Z,320
2023-06-19T06:58:43.755Z,320
2023-06-19T06:59:12.963Z,320
2023-06-19T06:59:43.605Z,320
2023-06-19T07:00:15.699Z,320
2023-06-19T07:00:44.751Z,320
2023-06-19T07:01:15.744Z,322
2023-06-19T07:01:47.633Z,321
2023-06-19T07:02:18.040Z,321
2023-06-19T07:02:51.886Z,321
2023-06-19T07:03:21.848Z,321
2023-06-19T07:03:52.944Z,321
2023-06-19T07:04:22.881Z,321
2023-06-19T07:04:55.039Z,321
2023-06-19T07:05:24.954Z,321
2023-06-19T07:05:54.797Z,321
2023-06-19T07:06:25.898Z,321
2023-06-19T07:06:57.311Z,321
2023-06-19T07:07:28.436Z,321
2023-06-19T07:07:59.474Z,321
2023-06-19T07:08:31.243Z,321
2023-06-19T07:09:02.021Z,321
2023-06-19T07:09:33.519Z,321
2023-06-19T07:10:03.831Z,321
2023-06-19T07:10:34.219Z,321
2023-06-19T07:11:05.118Z,321
2023-06-19T07:11:35.972Z,321
2023-06-19T07:12:07.260Z,321
2023-06-19T07:12:38.167Z,321
2023-06-19T07:13:11.373Z,321
2023-06-19T07:13:40.983Z,322
2023-06-19T07:14:12.667Z,321
2023-06-19T07:14:43.449Z,322
2023-06-19T07:15:13.986Z,321
2023-06-19T07:15:44.373Z,321
2023-06-19T07:16:15.181Z,321
2023-06-19T07:16:45.760Z,321
2023-06-19T07:17:19.068Z,321
2023-06-19T07:17:48.189Z,321
2023-06-19T07:18:19.968Z,321
2023-06-19T07:18:51.488Z,321
2023-06-19T07:19:22.269Z,321
2023-06-19T07:19:54.417Z,321
2023-06-19T07:20:24.052Z,321
2023-06-19T07:20:54.751Z,321
2023-06-19T07:21:24.919Z,321
2023-06-19T07:21:55.715Z,321
2023-06-19T07:22:27.002Z,321
2023-06-19T07:22:58.350Z,321
2023-06-19T07:23:29.658Z,321
2023-06-19T07:24:01.089Z,322
2023-06-19T07:24:32.251Z,321
2023-06-19T07:25:03.086Z,321
2023-06-19T07:25:33.260Z,321
2023-06-19T07:26:03.901Z,321
2023-06-19T07:26:34.788Z,321